Results by/Résultats par Info:[email protected] Phone: (613)260-0994


                                    K-TOWN TRIATHLON

                                Sunday August 3th, 2003

                         Confederation Park, Kingston, Ontario

                        Overall Results - Short Course Triathlon

  -----FINAL----- ----------------------- ------------ -------------------- ----            750m                        30 km                   7.2 km
                                                       Category                     ------SWIM + T1-------    ----------BIKE--------    -------RUN + T2-------   MINUS
    Pos     Time  Name                    City         Plc/Total Category     #      Cat  Ovr  Time  /100m     Cat Ovr Time  km/hr      Cat  Ovr  Time     km    BRIDGE
  ------  ------- ----------------------- ------------ -------------------- ----    ----------------------    ----------------------    ----------------------  --------
    1     1:28:20 Carl Weber              Kingston       1/21  M40 - 44      395    1      4   12:44  1:42    2      4   47:26  38.0     1      1   28:10  3:55         
    2     1:29:29 Brooke Boocock          Woodlawn       1/7   Junior Men    392    2     15   13:43  1:50    1      2   46:30  38.7     1      3   29:17  4:04         
    3     1:30:08 Roger Carroll           Ottawa         2/21  M40 - 44      449    3     16   13:45  1:50    1      3   46:58  38.3     2      4   29:25  4:06         
    4     1:30:19 Brock Davis             Kingston       1/29  M35 - 39      437    1      3   12:42  1:42    1      5   48:45  36.9     1      2   28:53  4:01         
    5     1:34:02 George Tolkachev        Aylmer         2/29  M35 - 39      569    2      5   12:48  1:43    3     13   50:27  35.7     2     13   30:48  4:17         
    6     1:34:40 Ron Webb                Ottawa         1/18  M45 - 49      444    1     20   14:25  1:56    1      8   49:41  36.2     2     11   30:35  4:15         
    7     1:35:06 Scott Takala            Harrowsmith    2/7   Junior Men    417    1      1   11:09  1:30    2      7   49:23  36.5     3     58   34:34  4:49         
    8     1:35:23 Gerry Lashley           Toronto        1/29  M30 - 34      471    3     32   15:08  2:01    1     14   50:31  35.6     1      6   29:45  4:08         
    9     1:35:25 Steve Winslow           Manlius        3/21  M40 - 44      400    5     28   14:57  2:00    3      6   49:16  36.5     3     14   31:12  4:20         
   10     1:35:29 Andy Willmott           Ottawa         1/17  M25 - 29      508    6     63   16:50  2:15    1      1   46:00  39.1     5     27   32:40  4:33         
   11     1:36:10 Graeme Smith            Kingston       4/21  M40 - 44      527    2     11   13:25  1:48    4      9   49:50  36.1     4     35   32:56  4:35         
   12     1:36:14 Robert Wilson           Kingston       2/17  M25 - 29      384    1     23   14:35  1:57    3     20   51:54  34.7     1      7   29:47  4:09         
   13     1:36:22 Bob McGraw              Kingston       2/18  M45 - 49      341    2     35   15:16  2:03    2     15   50:50  35.4     1      9   30:16  4:13         
   14     1:36:45 Cynthia Clark           Greely         1/23  W25 - 29      404    3     21   14:27  1:56    1     17   51:06  35.2     2     15   31:13  4:21         
   15     1:37:09 Laura Fluit             Kingston       1/1   Elite Women   493    1     13   13:33  1:49    1     23   52:07  34.5     1     16   31:30  4:23         
   16     1:37:54 Gary Tranmer            Kingston       1/13  M50 - 54      454    2     12   13:29  1:48    1     26   52:15  34.5     1     22   32:11  4:29         
   17     1:38:42 Richard Phelan          Toronto        3/17  M25 - 29      487    2     24   14:39  1:58    5     34   53:26  33.7     3     12   30:37  4:16         
   18     1:39:36 Michael Cino            Kingston       2/29  M30 - 34      497    1     29   14:58  2:00    2     16   51:03  35.3     7     44   33:35  4:40         
   19     1:39:56 Alina Toma              Kingston       1/12  W20 - 24      378    1      8   13:14  1:46    2     70   55:13  32.6     1     17   31:31  4:23         
   20     1:40:08 Bill McIlroy            Kingston       3/29  M35 - 39      348    10    74   17:15  2:18    2     11   50:17  35.8     5     25   32:37  4:32         
   21     1:40:54 Andrea McGill           Kingston       1/21  W30 - 34      586    1      6   12:48  1:43    1     31   53:09  33.9     3     67   34:58  4:52         
   22     1:41:32 Christian Del Valle     Ottawa         4/17  M25 - 29      570    4     51   16:20  2:11    6     62   54:49  32.8     2     10   30:24  4:14         
   23     1:41:35 Murray Tough            Kingston       4/29  M35 - 39      370    6     64   16:54  2:16    6     22   52:01  34.6     7     28   32:41  4:33         
   24     1:41:42 Mark Montgomery         Toronto        3/29  M30 - 34      441    2     31   15:05  2:01    3     27   52:27  34.3     9     52   34:11  4:45         
   25     1:41:49 Bill Bowman             Orillia        3/7   Junior Men    568    3     18   14:15  1:54    6     59   54:46  32.9     2     31   32:48  4:34         
   26     1:42:01 Richard Cadman          Battersea      5/21  M40 - 44      336    7     45   15:54  2:08    5     12   50:27  35.7     9     82   35:41  4:58         
   27     1:42:01 Jamie Hart              Oshawa         5/17  M25 - 29      396    3     33   15:10  2:02    4     21   52:01  34.6     6     63   34:51  4:51         
   28     1:42:18 Brad Doyle              Bowmanville    5/29  M35 - 39      540    3     43   15:42  2:06    11    47   53:57  33.4     6     26   32:40  4:33         
   29     1:42:27 Melanie Brassard        Peterborough   2/23  W25 - 29      377    6     41   15:33  2:05    3     49   54:11  33.2     3     29   32:43  4:33         
   30     1:42:32 Stephen Basiren         Brockville     6/29  M35 - 39      518    7     68   17:02  2:17    4     18   51:10  35.2     10    55   34:21  4:47         
   31     1:42:37 William Cooper          Kingston       6/21  M40 - 44      480    4     27   14:56  2:00    6     30   52:40  34.2     7     72   35:02  4:52         
   32     1:42:48 David McDonald          Kingston       7/29  M35 - 39      577    12    99   17:56  2:24    5     19   51:46  34.8     8     37   33:07  4:36         
   33     1:43:02 Rocheleau Kerry         Ottawa         2/21  W30 - 34      566    3     38   15:27  2:04    2     58   54:39  32.9     2     34   32:56  4:35         
   34     1:43:05 Mark Cunningham         Ottawa         8/29  M35 - 39      557    8     70   17:07  2:17    12    51   54:14  33.2     4     20   31:44  4:25         
   35     1:43:37 Claire Grasty           Gloucester     3/23  W25 - 29      559    5     36   15:19  2:03    4     54   54:26  33.1     4     48   33:53  4:43         
   36     1:43:51 Emily Sinclair          Kingston       4/23  W25 - 29      429    1      9   13:17  1:47    5     87   56:32  31.8     5     49   34:02  4:44         
   37     1:43:58 Chris Henry             Kingston       4/7   Junior Men    455    5     37   15:20  2:03    4     42   53:40  33.6     5     68   34:59  4:52         
   38     1:43:59 Rick Rooney             Kingston       9/29  M35 - 39      515    18   124   18:49  2:31    9     40   53:39  33.6     3     18   31:32  4:23         
   39     1:44:12 Terry OBrien            Kingston       2/13  M50 - 54      459    1     10   13:22  1:47    3     43   53:40  33.6     6    109   37:11  5:10         
   40     1:44:23 James Carpenter         Orleans        3/13  M50 - 54      383    5     66   17:00  2:16    4     45   53:49  33.5     2     43   33:35  4:40         
   41     1:44:27 eric lindenberg         belleville     3/18  M45 - 49      473    9    129   19:04  2:33    4     28   52:34  34.3     3     32   32:51  4:34         
   42     1:44:48 Eric Castledine         Nepean        10/29  M35 - 39      492    5     49   16:10  2:10    10    46   53:55  33.4     13    60   34:43  4:50         
   43     1:45:02 Mike West               Kingston       6/17  M25 - 29      483    14   229   23:04  3:05    2     10   49:51  36.1     4     21   32:09  4:28         
   44     1:45:12 Dona Andela             Burlington     1/14  W40 - 44      592    4     54   16:28  2:12    1     24   52:07  34.5     2     93   36:38  5:06         
   45     1:45:24 Sheldon Cook            Inverary       4/29  M30 - 34      555    6     60   16:46  2:15    10    71   55:17  32.6     6     41   33:22  4:38         
   46     1:45:33 Agathe Nicholson        Kingston       2/14  W40 - 44      349    2     19   14:24  1:56    7    126   58:50  30.6     1     23   32:19  4:30         
   47     1:45:39 Debbie MacCormack       Kingston       5/23  W25 - 29      481    2     14   13:34  1:49    6    104   57:14  31.5     6     64   34:52  4:51         
   48     1:45:41 Rick Cathrae            Belleville     4/13  M50 - 54      369    6     75   17:17  2:19    5     50   54:12  33.2     4     53   34:13  4:46         
   49     1:45:48 carlos gonzalez         ajax           7/21  M40 - 44      359    10    87   17:41  2:22    7     66   54:57  32.8     5     40   33:11  4:37         
   50     1:46:01 Zach Hunt               Kingston       5/7   Junior Men    415    6     44   15:52  2:07    3     39   53:32  33.6     6     94   36:38  5:06         
   51     1:46:06 Isaac Goldberg          Cornwall       1/7   M20 - 24      351    1     72   17:14  2:18    3     73   55:27  32.5     3     42   33:27  4:39         
   52     1:46:15 Richard Henry           Kingston       4/18  M45 - 49      465    3     40   15:32  2:05    6     92   56:42  31.8     5     50   34:02  4:44         
   53     1:46:26 Rob Rowlatt             Kingston       5/29  M30 - 34      353    28   224   22:55  3:04    5     33   53:22  33.7     2      8   30:11  4:12         
   54     1:46:27 Susie Joy               Kingston       3/21  W30 - 34      421    5     84   17:32  2:21    4    107   57:21  31.4     1     19   31:34  4:23         
   55     1:46:40 Martin Guyon            Kingston      11/29  M35 - 39      548    11    97   17:54  2:24    14    65   54:55  32.8     9     46   33:52  4:43         
   56     1:46:45 Brad Smith              Chelsea       12/29  M35 - 39      490    4     48   16:06  2:09    16    80   56:10  32.1     12    57   34:30  4:48         
   57     1:46:46 Marianne Carlyle        Oshawa         3/14  W40 - 44      581    1     17   13:50  1:51    2     60   54:46  32.9     4    119   38:10  5:19         
   58     1:46:47 David Barbic            Kingston       2/7   M20 - 24      379    2     90   17:45  2:22    1     38   53:32  33.6     5     77   35:31  4:56         
   59     1:46:51 Bill Budgell            Whitby         6/29  M30 - 34      432    10   106   18:07  2:25    9     55   54:31  33.0     10    54   34:15  4:46         
   60     1:47:15 Chris Heffernan         Peterborough  13/29  M35 - 39      406    9     71   17:12  2:18    15    67   55:03  32.7     15    70   35:01  4:52         
   61     1:47:15 Andrew Speedy           Belleville     8/21  M40 - 44      368    6     39   15:27  2:04    9     82   56:13  32.0     8     80   35:36  4:57         
   62     1:47:19 Patrick Gilmour         Kingston       7/29  M30 - 34      324    7     76   17:20  2:19    18   106   57:17  31.4     4     30   32:44  4:33         
   63     1:47:20 Alison Louise Fraser    Kingston       6/23  W25 - 29      398    8     73   17:15  2:18    9    157 1:00:26  29.8     1      5   29:40  4:08         
   64     1:47:23 brian farnell           RR 1 Inverar   5/18  M45 - 49      312    4     62   16:48  2:15    7    108   57:26  31.3     4     39   33:11  4:37         
   65     1:47:32 Mark Blackman           Kingston       3/7   M20 - 24      500    3     93   17:51  2:23    5     88   56:33  31.8     2     38   33:09  4:37         
   66     1:47:37 Ian Sempowski           Kingston      14/29  M35 - 39      301    16   119   18:38  2:30    7     35   53:27  33.7     16    78   35:32  4:57         
   67     1:47:45 Lance Martel            Toronto        7/17  M25 - 29      550    5     52   16:22  2:11    8     74   55:28  32.5     7     84   35:57  5:00         
   68     1:47:48 Mark Touw               Kingston       6/7   Junior Men    462    7    116   18:32  2:29    5     56   54:31  33.0     4     61   34:45  4:50         
   69     1:47:55 Mark Frederick          Kingston       6/18  M45 - 49      380    5     77   17:22  2:19    5     48   53:58  33.4     7     89   36:35  5:05         
   70     1:48:10 Michelle Cole           Kingston       4/21  W30 - 34      325    2      7   12:57  1:44    3     77   56:03  32.1     7    128   39:11  5:27         
   71     1:48:33 Eric Weese              Napanee        4/7   M20 - 24      534    6    175   20:36  2:45    2     64   54:55  32.8     1     36   33:04  4:36         
   72     1:48:53 Timon Garreau           ASHTON         8/29  M30 - 34      513    27   223   22:46  3:03    6     37   53:32  33.6     3     24   32:35  4:32         
   73     1:48:53 Jim McMahon             Belleville     9/29  M30 - 34      537    15   160   20:09  2:42    7     41   53:39  33.6     13    73   35:06  4:53         
   74     1:49:41 David Hirtle            Brockville     7/18  M45 - 49      320    11   171   20:30  2:44    3     25   52:07  34.5     10   106   37:05  5:10         
   75     1:49:46 David Peterson          Napanee       10/29  M30 - 34      552    5     57   16:36  2:13    14    89   56:34  31.8     16    92   36:37  5:06         
   76     1:50:18 Janice de Vries         Kingston       1/25  W35 - 39      424    8    112   18:22  2:27    3     91   56:36  31.8     1     74   35:21  4:55         
   77     1:50:20 Linda Martin            Kanata         2/25  W35 - 39      509    2     47   15:59  2:08    5     95   56:48  31.7     5    113   37:35  5:14         
   78     1:50:24 Ed Brand                Kingston       1/6   M55 - 59      414    1     65   16:58  2:16    2    122   58:29  30.8     1     66   34:57  4:52         
   79     1:50:30 Larbi Benhabib          Kingston       5/7   M20 - 24      532    5    109   18:10  2:26    4     78   56:04  32.1     6     87   36:17  5:03         
   80     1:50:36 MARC PAQUETTE           St-Albert     11/29  M30 - 34      321    20   173   20:34  2:45    4     32   53:17  33.8     18    99   36:46  5:07         
   81     1:50:47 Geoff Shewfelt          Clayton       12/29  M30 - 34      318    19   168   20:29  2:44    12    84   56:14  32.0     8     51   34:05  4:44         
   82     1:51:07 Michael Campbell        Bethesda      13/29  M30 - 34      333    8     86   17:39  2:22    21   123   58:35  30.7     11    65   34:53  4:51         
   83     1:51:25 Nathalie Daigle         Kingston       3/25  W35 - 39      313    3     78   17:23  2:19    7     99   57:01  31.6     4    103   37:01  5:09         
   84     1:51:30 Jodi Johnson            Kingston      14/29  M30 - 34      463    14   158   20:06  2:41    13    85   56:24  31.9     12    71   35:01  4:52         
   85     1:51:30 John Hartnett           Kingston       6/7   M20 - 24      516    4     95   17:53  2:23    6    100   57:02  31.6     7     91   36:36  5:05         
   86     1:51:41 Dan McIver              Kingston      15/29  M30 - 34      451    18   165   20:23  2:43    11    75   55:56  32.2     14    75   35:23  4:55         
   87     1:51:50 Laurie Ross             Battersea      4/14  W40 - 44      427    3     46   15:57  2:08    3    109   57:28  31.3     5    122   38:26  5:21         
   88     1:51:55 Anne Myers              Kingston       2/12  W20 - 24      411    6    103   18:01  2:25    4    146 1:00:03  30.0     2     47   33:52  4:43         
   89     1:52:01 Douglas Robertson       Calgary       15/29  M35 - 39      393    20   148   19:37  2:37    8     36   53:30  33.7     18   126   38:55  5:25         
   90     1:52:03 Kay Blackwood           Kingston       4/25  W35 - 39      511    1      2   12:23  1:40    1     69   55:10  32.6     20   200   44:31  6:11         
   91     1:52:19 WENDY FLECKER           KINGSTON       5/14  W40 - 44      346    5     56   16:29  2:12    6    125   58:48  30.6     3    104   37:02  5:09         
   92     1:52:26 Stacey Berdan           Tweed          5/25  W35 - 39      525    5     80   17:27  2:20    9    113   58:00  31.0     3    102   37:00  5:09         
   93     1:52:41 Sarah Byers             Kingston       5/21  W30 - 34      436    9    128   19:02  2:33    5    115   58:07  31.0     4     79   35:33  4:57         
   94     1:52:47 Ellen Lye               Ottawa         3/12  W20 - 24      560    2     22   14:29  1:56    3    133   59:07  30.5     4    129   39:12  5:27         
   95     1:52:54 Matthew Gilgan          Oakville       8/17  M25 - 29      506    10   150   19:44  2:38    7     68   55:04  32.7     9    117   38:07  5:18         
   96     1:53:05 Alec Ross               Kingston       9/21  M40 - 44      356    13   183   21:03  2:49    8     79   56:05  32.1     10    85   35:57  5:00         
   97     1:53:05 Mitch Fallis            Yarker        16/29  M35 - 39      457    21   149   19:40  2:38    18    94   56:47  31.7     17    95   36:39  5:06         
   98     1:53:08 Richard Cameron         Kingston       5/13  M50 - 54      352    7     96   17:53  2:24    7    116   58:08  31.0     5    108   37:07  5:10         
   99     1:53:10 Martha Collins          Kingston       6/14  W40 - 44      375    6     58   16:39  2:14    4    112   57:54  31.1     6    124   38:38  5:22         
  100     1:53:47 Rob McPhee              Edmonton       6/13  M50 - 54      445    3     26   14:54  2:00    11   175 1:01:42  29.2     7    110   37:11  5:10         
  101     1:53:56 Cuthbert Cheung         Belleville     8/18  M45 - 49      367    6     89   17:44  2:22    10   140   59:37  30.2     8     90   36:35  5:05         
  102     1:54:14 Jim Keech               Bath           9/18  M45 - 49      401    10   136   19:14  2:34    9    128   58:58  30.5     6     86   36:02  5:01         
  103     1:54:16 Sarah Chapelsky         Kingston       4/12  W20 - 24      512    5     67   17:01  2:17    1     53   54:18  33.2     10   184   42:58  5:59         
  104     1:54:20 Helga Grodzinski        Kingston       6/25  W35 - 39      302    6    108   18:09  2:26    2     81   56:12  32.0     12   139   39:59  5:34         
  105     1:54:21 Chad Clark              Greely        16/29  M30 - 34      403    4     34   15:13  2:02    19   111   57:33  31.3     24   164   41:36  5:47         
  106     1:54:24 David Andrew            Kingston       7/13  M50 - 54      477    11   217   22:31  3:01    8    117   58:08  31.0     3     45   33:45  4:42         
  107     1:54:29 Ben Blakley             Belleville     7/7   Junior Men    543    4     30   15:02  2:01    7    168 1:01:13  29.4     7    121   38:15  5:19         
  108     1:54:29 Gareth Davies           Kingston       9/17  M25 - 29      390    11   190   21:23  2:51    9     76   56:02  32.1     8    107   37:06  5:10         
  109     1:54:47 Andres Pugi             East Greenbu  17/29  M35 - 39      456    17   123   18:48  2:31    17    83   56:13  32.0     20   136   39:48  5:32         
  110     1:55:27 Mark Waldron            Kingston      10/21  M40 - 44      416    11   101   17:59  2:24    18   190 1:02:50  28.7     6     59   34:40  4:49         
  111     1:55:33 Joan Tranmer            Kingston       1/8   W45 - 49      467    2     88   17:44  2:22    1     57   54:38  33.0     2    188   43:12  6:00         
  112     1:55:34 Michael Davidson        Ottawa        10/17  M25 - 29      315    9    147   19:33  2:37    10    86   56:31  31.9     10   132   39:31  5:30         
  113     1:55:47 Jess Wise               Kingston       5/12  W20 - 24      499    3     42   15:37  2:05    10   200 1:03:36  28.3     3     88   36:34  5:05         
  114     1:55:55 Geoff Deir              Gananoque     17/29  M30 - 34      311    9     94   17:52  2:23    16   101   57:03  31.6     21   157   41:00  5:42         
  115     1:56:05 Joseph Harding          Ottawa        18/29  M30 - 34      442    13   157   20:05  2:41    26   193 1:03:09  28.5     5     33   32:51  4:34         
  116     1:56:26 Allan Merpaw            R R 3 Brockv   8/13  M50 - 54      307    4     55   16:29  2:12    9    134   59:07  30.5     8    154   40:50  5:41         
  117     1:56:39 Darryl Smith            Kingston      19/29  M30 - 34      496    26   222   22:40  3:02    20   114   58:05  31.0     15    83   35:55  5:00         
  118     1:56:41 Cathy Campanaro         Kingston       7/25  W35 - 39      347    19   176   20:37  2:45    11   132   59:06  30.5     2    101   36:59  5:09         
  119     1:56:57 Don Bayne               Wolfe Island   2/6   M55 - 59      538    5    154   19:55  2:40    1     63   54:54  32.8     2    170   42:09  5:52         
  120     1:57:02 Chris Prouse            Amherstview    7/7   M20 - 24      590    7    226   22:59  3:04    7    138   59:15  30.4     4     62   34:49  4:51         
  121     1:57:06 Jennifer Nason          Ottawa         7/23  W25 - 29      329    12   111   18:15  2:26    11   197 1:03:23  28.4     7     76   35:28  4:56         
  122     1:57:06 Sheri Mccready          Kingston       8/25  W35 - 39      558    23   198   21:43  2:54    8    105   57:15  31.5     7    118   38:10  5:18         
  123     1:57:07 Peter Brown             Kingston       9/13  M50 - 54      468    8    159   20:07  2:41    2     29   52:38  34.2     9    196   44:23  6:10         
  124     1:57:11 Brian Lawrde-Munro      Amherstview   18/29  M35 - 39      501    25   213   22:28  3:00    13    61   54:48  32.9     21   137   39:56  5:33         
  125     1:57:12 Jill Scott              Kingston       9/25  W35 - 39      303    13   130   19:04  2:33    10   131   59:04  30.5     9    127   39:05  5:26         
  126     1:57:35 David Harkey            Oakville      20/29  M30 - 34      485    17   164   20:22  2:43    22   130   59:03  30.5     19   120   38:11  5:19         
  127     1:57:52 Bev Whiten              Kingston      10/25  W35 - 39      587    14   131   19:07  2:33    14   151 1:00:12  29.9     8    123   38:34  5:22         
  128     1:58:00 Sara Ryan               Kingston       6/21  W30 - 34      507    7    113   18:23  2:27    6    121   58:28  30.8     10   159   41:09  5:43         
  129     1:58:09 Carrie McCallum         Kanata        11/25  W35 - 39      545    9    115   18:30  2:28    4     93   56:47  31.7     17   182   42:53  5:58         
  130     1:58:10 Emma Wong               Ottawa         6/12  W20 - 24      556    4     59   16:43  2:14    5    166 1:01:05  29.5     6    147   40:24  5:37         
  131     1:58:20 Marc Young              Kingston      11/21  M40 - 44      478    12   155   19:59  2:40    13   158 1:00:31  29.8     12   114   37:50  5:16         
  132     1:58:28 Susie Everding          Odessa        12/25  W35 - 39      372    7    110   18:13  2:26    13   139   59:36  30.2     13   150   40:40  5:39         
  133     1:58:32 andrew smillie          Kingston      12/21  M40 - 44      563    9     83   17:31  2:21    15   163 1:00:55  29.6     16   142   40:07  5:35         
  134     1:58:37 Jennifer Jackson        Kingston       8/23  W25 - 29      428    19   188   21:09  2:50    8    156 1:00:24  29.8     8    105   37:04  5:09         
  135     1:58:50 Margaret Bailey         Ottawa         7/21  W30 - 34      533    11   146   19:30  2:36    8    177 1:01:51  29.1     6    112   37:30  5:13         
  136     1:59:00 Julie Belbeck           Petawawa       9/23  W25 - 29      591    9     82   17:30  2:20    13   205 1:04:04  28.1     9    111   37:26  5:12         
  137     1:59:06 Manon Plante            Kingston      13/25  W35 - 39      494    10   118   18:34  2:29    12   137   59:14  30.4     15   161   41:18  5:45         
  138     1:59:11 Mike Lucas              Sydenham      19/29  M35 - 39      358    19   145   19:27  2:36    25   154 1:00:17  29.9     19   131   39:28  5:29         
  139     1:59:12 Dale Engen              Kingston      20/29  M35 - 39      524    28   246   24:16  3:15    23   143   59:57  30.0     14    69   35:00  4:52         
  140     1:59:13 William R. Greer        Perth         10/18  M45 - 49      580    12   172   20:34  2:45    13   178 1:01:58  29.1     9     97   36:43  5:06         
  141     1:59:38 Gerry Hanley            Napanee       21/29  M35 - 39      585    13   100   17:57  2:24    21   129   59:00  30.5     25   177   42:41  5:56         
  142     1:59:44 Paul Micsko             Oakville      11/17  M25 - 29      522    8    140   19:17  2:35    11   110   57:29  31.3     13   185   42:59  5:59         
  143     1:59:46 Jennifer Ling           Trenton       10/23  W25 - 29      408    20   194   21:26  2:52    7    119   58:17  30.9     10   140   40:04  5:34         
  144     2:00:06 Wilma Pettingill        Kingston      14/25  W35 - 39      546    11   122   18:47  2:31    18   179 1:01:58  29.1     10   130   39:22  5:28         
  145     2:00:07 Bonny Costello          Carleton Pla   8/21  W30 - 34      450    12   153   19:55  2:40    7    150 1:00:10  29.9     8    141   40:04  5:34         
  146     2:00:25 Terry Hodge             brockville    13/21  M40 - 44      402    15   215   22:29  3:00    10   102   57:08  31.5     17   152   40:49  5:41         
  147     2:00:38 Trevor Hammond          Kingston      22/29  M35 - 39      502    14   104   18:04  2:25    27   180 1:02:03  29.0     22   148   40:33  5:38         
  148     2:00:42 Gerard Archambault      La Prairie    23/29  M35 - 39      374    15   105   18:04  2:25    19    97   56:59  31.6     27   212   45:40  6:21         
  149     2:00:48 Ryan Travers            North Bay     21/29  M30 - 34      531    25   219   22:36  3:01    17   103   57:13  31.5     22   158   41:01  5:42         
  150     2:01:03 Wright Steve            Kingston      22/29  M30 - 34      430    21   180   20:49  2:47    15    90   56:35  31.8     26   190   43:40  6:04         
  151     2:01:06 Dave Ward               Owen Sound     1/5   M60 & Over    439    2    163   20:17  2:43    1     72   55:26  32.5     1    208   45:24  6:19         
  152     2:01:19 Annette Robertson       Calgary       15/25  W35 - 39      394    22   197   21:41  2:54    17   176 1:01:43  29.2     6    115   37:55  5:16         
  153     2:01:28 Gina Gushue             Kingston       7/14  W40 - 44      355    8    170   20:30  2:44    5    124   58:40  30.7     8    172   42:19  5:53         
  154     2:01:42 Catherine Adams         Toronto       16/25  W35 - 39      475    15   135   19:13  2:34    16   171 1:01:36  29.2     14   155   40:54  5:41         
  155     2:01:56 Mark OConnor            Ottawa        23/29  M30 - 34      561    23   210   22:24  3:00    23   136   59:12  30.4     20   145   40:21  5:37         
  156     2:02:16 Sue McIver              Kingston      17/25  W35 - 39      460    12   127   18:56  2:32    15   153 1:00:13  29.9     18   187   43:09  6:00         
  157     2:02:20 Jay C James             Napanee       24/29  M30 - 34      319    22   209   22:23  3:00    8     52   54:15  33.2     28   214   45:43  6:21         
  158     2:02:31 Leanne Murphy           Ottawa        11/23  W25 - 29      535    14   121   18:45  2:30    12   198 1:03:26  28.4     12   146   40:22  5:37         
  159     2:02:34 Greg Kerr               Tweed         10/13  M50 - 54      523    10   189   21:10  2:50    6     98   57:01  31.6     10   197   44:24  6:10         
  160     2:02:38 Angela Brown            Toronto       12/23  W25 - 29      386    4     25   14:51  1:59    18   231 1:07:33  26.7     11   144   40:15  5:36         
  161     2:02:47 Annie Ginn              Kingston       7/12  W20 - 24      583    9    142   19:21  2:35    7    181 1:02:12  28.9     8    160   41:15  5:44         
  162     2:02:48 Leslie Parking          Ingersoll      8/14  W40 - 44      326    7     69   17:04  2:17    9    169 1:01:19  29.4     11   198   44:26  6:11         
  163     2:03:15 Rob Renaud              Yarker        11/18  M45 - 49     1050    8    126   18:55  2:32    8    118   58:10  31.0     15   218   46:11  6:25         
  164     2:03:19 Brian Beck              Kingston      24/29  M35 - 39      357    27   236   23:36  3:09    22   135   59:09  30.4     23   149   40:35  5:39         
  165     2:03:20 Harriet Patterson       Belfast        8/12  W20 - 24      510    10   169   20:29  2:44    8    189 1:02:44  28.7     5    143   40:08  5:35         
  166     2:03:23 Ellen Maitland          Toronto        9/21  W30 - 34      470    4     61   16:47  2:15    13   216 1:05:39  27.4     9    156   40:58  5:42         
  167     2:03:27 Catherine Banton        Kingston       9/12  W20 - 24      397    7    134   19:09  2:34    9    199 1:03:36  28.3     7    151   40:43  5:40         
  168     2:03:30 Esley-Anne Albert       Beaconsfield  10/12  W20 - 24      385    8    141   19:21  2:35    6    170 1:01:24  29.3     9    178   42:46  5:57         
  169     2:03:34 dave markotich          harrowsmith   25/29  M35 - 39      438    22   193   21:25  2:52    29   232 1:07:41  26.6     11    56   34:29  4:48         
  170     2:03:43 Pete Kaulbach           Toronto       26/29  M35 - 39      579    23   201   21:54  2:56    20   127   58:53  30.6     26   183   42:57  5:58         
  171     2:03:49 Kerry Phillips          Belleville    12/18  M45 - 49      575    13   181   20:51  2:47    11   148 1:00:08  29.9     12   180   42:50  5:57         
  172     2:04:19 Leeann Morrow           Toronto       10/21  W30 - 34      407    14   184   21:04  2:49    16   224 1:06:32  27.1     5     98   36:44  5:06         
  173     2:05:05 Christine Morton        Kingston      13/23  W25 - 29      464    18   186   21:08  2:49    10   192 1:03:09  28.5     13   153   40:49  5:41         
  174     2:05:06 Bruce Patry             Kingston      25/29  M30 - 34      306    11   114   18:28  2:28    24   147 1:00:04  30.0     29   225   46:35  6:29         
  175     2:05:06 Kevin Douglas           Kingston      26/29  M30 - 34      413    12   139   19:16  2:35    25   167 1:01:07  29.5     27   203   44:44  6:13         
  176     2:05:07 Lynda Steers            Toronto       18/25  W35 - 39      528    24   220   22:36  3:01    6     96   56:48  31.7     21   215   45:44  6:21         
  177     2:05:09 Irvine Francis          Cornwall       3/6   M55 - 59      350    4    137   19:15  2:34    4    155 1:00:18  29.9     4    211   45:38  6:21         
  178     2:05:14 Eric Schjerning         Etobicoke     14/21  M40 - 44      423    20   259   27:06  3:37    12   149 1:00:08  29.9     13   116   38:01  5:17         
  179     2:05:25 Marc Moreau             Kingston      15/21  M40 - 44      539    18   240   23:49  3:11    11   145 1:00:02  30.0     18   163   41:35  5:47         
  180     2:05:28 Jennifer Minor          Kingston      14/23  W25 - 29      547    15   144   19:24  2:36    14   206 1:04:16  28.0     14   166   41:49  5:49         
  181     2:05:33 mike laing              kingston      16/21  M40 - 44      426    14   199   21:48  2:55    19   204 1:04:02  28.1     15   135   39:43  5:31         
  182     2:05:38 Stephen Boston          Kingston      17/21  M40 - 44      479    19   243   24:10  3:14    17   188 1:02:41  28.7     14   125   38:48  5:24         
  183     2:06:17 John Jessome            Kingston      27/29  M30 - 34      544    29   254   26:23  3:32    27   195 1:03:16  28.5     17    96   36:39  5:06         
  184     2:06:17 Diane Urie              Kingston      11/21  W30 - 34      578    6    102   18:00  2:24    11   213 1:05:16  27.6     11   186   43:03  5:59         
  185     2:06:19 Lynn Noonan             Belleville     9/14  W40 - 44      562    11   202   21:54  2:56    8    144   59:59  30.0     12   199   44:27  6:11         
  186     2:06:24 Brenda Bemis            Oshawa        10/14  W40 - 44      365    9    177   20:38  2:46    11   174 1:01:40  29.2     10   194   44:07  6:08         
  187     2:06:26 Darci Jansen            Kingston      11/14  W40 - 44      433    12   205   22:08  2:57    10   172 1:01:38  29.2     9    176   42:41  5:56         
  188     2:06:46 Martha McSherry         Belleville    12/14  W40 - 44      574    10   192   21:24  2:52    12   203 1:03:47  28.2     7    165   41:36  5:47         
  189     2:06:49 Miriam Lyon             Kingston       1/3   Junior Women  360    3    179   20:40  2:46    2    225 1:06:40  27.0     1    133   39:31  5:30         
  190     2:06:52 Mike Porter             Kingston      27/29  M35 - 39     1049    26   234   23:31  3:09    26   164 1:00:59  29.5     24   173   42:23  5:54         
  191     2:07:02 Jay Rayner              Kingston      12/17  M25 - 29      342    7     92   17:50  2:23    12   159 1:00:33  29.7     16   237   48:39  6:46         
  192     2:07:39 TIM HEDGES              KINGSTON      28/29  M30 - 34      551    24   216   22:31  3:01    28   202 1:03:46  28.2     23   162   41:22  5:45         
  193     2:07:49 Leigh Bowman            Orillia        2/8   W45 - 49      565    1     85   17:36  2:21    3    220 1:06:13  27.2     3    192   44:01  6:07         
  194     2:07:53 Shirley Myers           Kingston       1/5   W50 - 54      410    5    255   26:42  3:34    4    214 1:05:32  27.5     1     81   35:40  4:58         
  195     2:07:57 Jill Relyea-Voss        Kingston       2/5   W50 - 54      452    4    232   23:23  3:07    1    142   59:46  30.1     3    204   44:49  6:14         
  196     2:08:32 Geoff Flynn             Bath           2/5   M60 & Over    526    1    120   18:43  2:30    2    120   58:20  30.9     3    245   51:29  7:09         
  197     2:08:38 Bessie Sullivan         Kingston      12/21  W30 - 34      448    8    125   18:54  2:32    12   215 1:05:34  27.5     12   195   44:12  6:09         
  198     2:09:11 Nancy Overington        Kingston       3/5   W50 - 54      361    2    195   21:29  2:52    2    186 1:02:34  28.8     4    205   45:09  6:17         
  199     2:09:33 Brian McDonald          Kingston      13/18  M45 - 49      389    7     98   17:55  2:24    12   162 1:00:35  29.7     17   244   51:04  7:06         
  200     2:09:51 Nancy Bardecki          Toronto        4/5   W50 - 54      571    3    221   22:40  3:02    3    212 1:05:10  27.6     2    168   42:02  5:51         
  201     2:09:53 Kristian Ewen           Ottawa        13/17  M25 - 29      314    13   227   23:00  3:04    15   209 1:04:39  27.8     12   171   42:15  5:53         
  202     2:09:56 Paul Fraresso           Kingston      11/13  M50 - 54      582    9    167   20:27  2:44    10   161 1:00:34  29.7     11   239   48:56  6:48         
  203     2:10:06 Mike Kirkpatrick        Toronto       29/29  M30 - 34      588    16   161   20:11  2:42    29   226 1:06:42  27.0     25   189   43:14  6:01         
  204     2:10:40 Gail Harvey             Kingston       3/8   W45 - 49      362    8    249   25:23  3:24    2    196 1:03:17  28.5     1    167   42:01  5:51         
  205     2:10:50 Marty McFarlane         Kingston      28/29  M35 - 39      520    24   204   22:00  2:56    28   191 1:03:06  28.5     28   216   45:45  6:22         
  206     2:11:08 Rick Hunt               Kingston      18/21  M40 - 44      409    17   231   23:22  3:07    14   160 1:00:33  29.7     20   228   47:14  6:34         
  207     2:11:21 Adriana Rossi           Chelsea       19/25  W35 - 39      488    4     79   17:24  2:20    23   242 1:09:57  25.7     19   193   44:01  6:07         
  208     2:11:24 Annette Wajszczuk       Oakville      15/23  W25 - 29      505    11   107   18:08  2:26    17   219 1:06:00  27.3     19   229   47:17  6:34         
  209     2:11:25 Ben Eby                 Kingston      29/29  M35 - 39      422    29   248   24:57  3:20    24   152 1:00:12  29.9     29   219   46:17  6:26         
  210     2:12:08 Siobhan Kelly           Kingston      13/21  W30 - 34      469    10   132   19:08  2:33    14   218 1:06:00  27.3     15   226   47:01  6:32         
  211     2:12:16 Wendy Pentland          Kingston       4/8   W45 - 49      381    4    162   20:12  2:42    4    230 1:07:23  26.7     4    202   44:42  6:13         
  212     2:12:20 Gillian Kelly           Kingston       1/3   W55 - 59      584    1    203   21:55  2:56    1    210 1:04:46  27.8     1    213   45:40  6:21         
  213     2:12:35 KLEMENS ARMASZ          MAITLAND       4/6   M55 - 59      308    3    133   19:08  2:34    5    165 1:01:01  29.5     5    252   52:27  7:18         
  214     2:12:38 Dwayne Donnelly         Kingston      19/21  M40 - 44      498    16   230   23:18  3:07    16   173 1:01:38  29.2     21   231   47:43  6:38         
  215     2:12:49 kira mcneely            Kingston      20/25  W35 - 39      519    25   238   23:38  3:10    21   223 1:06:24  27.1     16   179   42:48  5:57         
  216     2:13:01 Cathy Shilton           Humpty Doo    21/25  W35 - 39      339    21   191   21:23  2:51    25   252 1:11:41  25.1     11   138   39:58  5:33         
  217     2:13:19 Michael Brundage        Kingston      14/18  M45 - 49      419    14   211   22:25  3:00    14   187 1:02:37  28.8     16   236   48:19  6:43         
  218     2:13:35 John Hunter             Winnipeg       5/6   M55 - 59      553    2     81   17:28  2:20    3    141   59:44  30.1     6    260   56:24  7:50         
  219     2:13:52 Lisa Barrow             Chicago       14/21  W30 - 34      484    13   182   20:56  2:48    9    194 1:03:13  28.5     18   241   49:44  6:55         
  220     2:14:08 Kevin hansen            Kingston      14/17  M25 - 29      458    12   214   22:29  3:00    14   201 1:03:46  28.2     15   233   47:54  6:40         
  221     2:14:19 Mario Tiozzo            Toronto       15/17  M25 - 29      549    16   237   23:38  3:10    16   249 1:11:07  25.3     11   134   39:35  5:30         
  222     2:14:37 Ted Belbeck             Ingersoll      6/6   M55 - 59      399    6    239   23:41  3:10    6    236 1:08:20  26.3     3    175   42:37  5:56         
  223     2:14:44 Leann Cunningham        Wolfe Island  22/25  W35 - 39      593    17   151   19:50  2:39    20   185 1:02:31  28.8     23   249   52:24  7:17         
  224     2:15:17 Lesley Gilmour          Kingston      16/23  W25 - 29      323    21   212   22:27  3:00    20   248 1:10:48  25.4     15   169   42:03  5:51         
  225     2:15:18 Lynne Rousseau          Yarker        23/25  W35 - 39      453    18   174   20:35  2:45    22   235 1:08:09  26.4     22   224   46:34  6:29         
  226     2:15:38 Brenda Saaltink         Cornwall       5/8   W45 - 49      309    3    143   19:24  2:36    5    234 1:08:03  26.5     7    235   48:12  6:42         
  227     2:16:04 Cardinal Danielle       Nepean        17/23  W25 - 29      317    13   117   18:33  2:29    15   211 1:05:08  27.6     20   251   52:25  7:17         
  228     2:16:22 Donna O'Connor          Kingston       5/5   W50 - 54      334    1    187   21:08  2:50    5    240 1:09:38  25.9     5    210   45:37  6:21         
  229     2:16:36 Jeanette Dietrich       Kingston      15/21  W30 - 34      529    19   247   24:32  3:17    17   227 1:06:52  26.9     13   206   45:13  6:17         
  230     2:16:38 MacDonald Ross          Nepean        16/17  M25 - 29      316    17   256   26:47  3:35    13   182 1:02:13  28.9     14   230   47:39  6:38         
  231     2:16:43 Heather Brackley        Kingston      11/12  W20 - 24      420    11   208   22:17  2:59    11   247 1:10:45  25.4     11   191   43:42  6:05         
  232     2:16:44 Robyn Irvine            Calgary       18/23  W25 - 29      332    17   166   20:27  2:44    19   244 1:09:59  25.7     18   221   46:20  6:26         
  233     2:17:12 John Forster            Manitouwadge   3/5   M60 & Over    514    3    251   25:58  3:28    3    184 1:02:28  28.8     2    238   48:47  6:47         
  234     2:17:32 Christy Peterson        Oshawa        16/21  W30 - 34      542    15   200   21:51  2:55    15   221 1:06:14  27.2     17   240   49:28  6:53         
  235     2:17:49 Karen Jutzi             North York    19/23  W25 - 29      495    22   250   25:50  3:27    16   217 1:05:59  27.3     17   217   46:01  6:24         
  236     2:18:27 Steve Campbell          Oakville      15/18  M45 - 49      337    15   241   23:54  3:12    16   243 1:09:58  25.7     13   201   44:36  6:12         
  237     2:19:14 Elizabeth Brooks        Stirling      13/14  W40 - 44      567    14   233   23:27  3:08    13   239 1:09:25  25.9     13   222   46:23  6:27         
  238     2:19:33 Barbara Routliffe       Ottawa        17/21  W30 - 34      345    18   245   24:14  3:14    10   208 1:04:37  27.9     19   242   50:43  7:03         
  239     2:19:37 Thomas Santowski        Long Sault    20/21  M40 - 44      446    8     50   16:16  2:11    21   267 1:26:33  20.8     11   100   36:49  5:07         
  240     2:19:59 Maryanne Takala         Harrowsmith    6/8   W45 - 49      418    7    242   24:05  3:13    6    238 1:09:21  26.0     5    223   46:33  6:28         
  241     2:20:36 Pierre Archambault      St-Constant   16/18  M45 - 49      387    18   269   33:38  4:30    15   207 1:04:23  28.0     11   174   42:36  5:55         
  242     2:21:56 Dominique Vienneau      Gananoque      2/3   Junior Women  517    2    178   20:39  2:46    1    222 1:06:16  27.2     3    257   55:02  7:39         
  243     2:22:01 Tim Sugrue              Kingston      21/21  M40 - 44      371    21   261   27:28  3:40    20   251 1:11:41  25.1     19   181   42:53  5:58         
  244     2:22:04 Erika Tipping           Stirling      24/25  W35 - 39      354    16   138   19:15  2:34    24   245 1:09:59  25.7     24   254   52:51  7:21         
  245     2:22:20 Emily Spencer           Kingston      20/23  W25 - 29      503    10    91   17:48  2:23    22   258 1:19:10  22.7     16   207   45:23  6:19         
  246     2:22:38 Susan Radford           Perth          7/8   W45 - 49      472    6    225   22:58  3:04    8    250 1:11:32  25.2     6    234   48:08  6:42         
  247     2:22:40 Sarah Reid              Kingston      18/21  W30 - 34      504    16   207   22:16  2:59    20   255 1:14:06  24.3     14   220   46:19  6:26         
  248     2:22:51 Jane Pus                London         8/8   W45 - 49      476    5    196   21:30  2:52    7    246 1:10:23  25.6     8    243   50:59  7:05         
  249     2:23:08 Elizabeth Harrison      Trenton       19/21  W30 - 34      331    21   260   27:20  3:39    19   233 1:08:00  26.5     16   232   47:49  6:39         
  250     2:23:11 Erika Everding          Odessa         1/2   W60 & Over    405    1    252   26:05  3:29    1    241 1:09:54  25.8     1    227   47:13  6:34         
  251     2:25:40 Dave Stewart            Kingston      12/13  M50 - 54      572    12   228   23:02  3:05    12   229 1:07:18  26.8     13   258   55:21  7:42         
  252     2:26:35 Jeanette Herrle-Fanning Kingston      20/21  W30 - 34      364    20   258   27:05  3:37    18   228 1:06:52  26.9     21   253   52:38  7:19         
  253     2:28:18 Donald Farquhar         Kingston      17/18  M45 - 49      530    17   265   29:14  3:54    17   254 1:13:37  24.5     14   209   45:28  6:19         
  254     2:30:39 Leslie Ritchie          Kingston      21/21  W30 - 34      328    17   218   22:32  3:01    21   256 1:15:43  23.8     20   250   52:24  7:17         
  255     2:36:25 Jen Wirch               Kingston      21/23  W25 - 29      343    16   156   20:04  2:41    21   253 1:12:57  24.7     22   264 1:03:24  8:49         
  256     2:36:45 Rhiannon Edwards        Kingston       3/3   Junior Women  573    1    152   19:53  2:39    3    266 1:24:34  21.3     2    248   52:19  7:16         
  257     2:39:52 Shamir Doshi            Kanata        17/17  M25 - 29      589    15   235   23:35  3:09    17   259 1:19:57  22.5     17   259   56:21  7:50         
  258     2:44:06 Tania Derraugh          Kingston      12/12  W20 - 24      344    12   253   26:18  3:31    12   260 1:20:24  22.4     12   262   57:24  7:59         
  259     2:44:16 Brian Jewitt            Cantley        4/5   M60 & Over    541    4    262   28:16  3:47    4    237 1:08:39  26.2     5    266 1:07:21  9:22         
  260     2:44:23 John Somerville         Kingston      13/13  M50 - 54      431    13   257   27:00  3:36    13   264 1:23:23  21.6     12   255   54:01  7:31         
  261     2:44:34 June Mason              Kingston       2/3   W55 - 59      489    2    266   31:22  4:11    2    265 1:24:31  21.3     2    246   51:29  7:09    2:47 
  262     2:46:24 Peter Vangestel         Erinsville     5/5   M60 & Over    576    5    267   31:52  4:15    5    263 1:22:48  21.7     4    247   51:45  7:12         
  263     2:47:07 Ann-Marie Kungl         Kingston      22/23  W25 - 29      461    23   264   28:29  3:48    23   268 1:27:03  20.7     21   261   56:26  7:51    4:50 
  264     2:48:18 Elizabeth Eickmeier     Howe Island    2/2   W60 & Over    330    2    263   28:29  3:48    2    257 1:16:36  23.5     2    263 1:03:14  8:47         
  265     2:51:21 Robert Stevenson        Kingston      18/18  M45 - 49      474    16   244   24:11  3:14    18   262 1:22:44  21.8     18   265 1:04:26  8:57         
  266     2:54:19 Ruth Crafts             43             3/3   W55 - 59      447    3    268   32:09  4:18    3    269 1:28:06  20.4     3    256   54:05  7:31         
  267             Janine MacLeod          Kingston      23/23  W25 - 29      435    7     53   16:28  2:12    2     44   53:45  33.5                                    
  268             Patty Pauls             Kingston      25/25  W35 - 39      466    20   185   21:06  2:49    19   183 1:02:17  28.9                                    
  269             Karilene Montgomery     Kingston      14/14  W40 - 44      363    13   206   22:13  2:58    14   261 1:21:08  22.2